sensor_id;sensor_type;location;lat;lon;timestamp;P1;durP1;ratioP1;P2;durP2;ratioP2
76813;SDS011;65767;49.360;8.266;2022-12-19T00:00:25;66.05;;;36.55;;
76813;SDS011;65767;49.360;8.266;2022-12-19T00:01:26;70.73;;;36.73;;
76813;SDS011;65767;49.360;8.266;2022-12-19T00:02:29;65.93;;;36.13;;
76813;SDS011;65767;49.360;8.266;2022-12-19T00:03:31;65.05;;;34.67;;
76813;SDS011;65767;49.360;8.266;2022-12-19T00:04:33;62.50;;;35.22;;
76813;SDS011;65767;49.360;8.266;2022-12-19T00:05:40;65.63;;;36.03;;
76813;SDS011;65767;49.360;8.266;2022-12-19T00:06:40;62.10;;;33.65;;
76813;SDS011;65767;49.360;8.266;2022-12-19T00:07:41;64.50;;;35.07;;
76813;SDS011;65767;49.360;8.266;2022-12-19T00:08:50;67.88;;;35.92;;
76813;SDS011;65767;49.360;8.266;2022-12-19T00:09:51;59.78;;;34.08;;
76813;SDS011;65767;49.360;8.266;2022-12-19T00:10:55;72.27;;;35.73;;
76813;SDS011;65767;49.360;8.266;2022-12-19T00:12:00;65.25;;;34.53;;
76813;SDS011;65767;49.360;8.266;2022-12-19T00:13:01;61.25;;;35.10;;
76813;SDS011;65767;49.360;8.266;2022-12-19T00:14:01;65.37;;;35.60;;
76813;SDS011;65767;49.360;8.266;2022-12-19T00:15:04;64.15;;;35.97;;
76813;SDS011;65767;49.360;8.266;2022-12-19T00:16:15;66.60;;;36.03;;
76813;SDS011;65767;49.360;8.266;2022-12-19T00:17:17;65.57;;;36.45;;
76813;SDS011;65767;49.360;8.266;2022-12-19T00:18:20;68.30;;;37.08;;
76813;SDS011;65767;49.360;8.266;2022-12-19T00:19:21;68.55;;;36.38;;
76813;SDS011;65767;49.360;8.266;2022-12-19T00:20:22;65.20;;;36.47;;
76813;SDS011;65767;49.360;8.266;2022-12-19T00:21:25;66.88;;;36.92;;
76813;SDS011;65767;49.360;8.266;2022-12-19T00:22:28;65.30;;;36.80;;
76813;SDS011;65767;49.360;8.266;2022-12-19T00:23:31;67.97;;;36.63;;
76813;SDS011;65767;49.360;8.266;2022-12-19T00:24:33;67.80;;;36.17;;
76813;SDS011;65767;49.360;8.266;2022-12-19T00:25:35;56.88;;;34.00;;
76813;SDS011;65767;49.360;8.266;2022-12-19T00:26:39;64.88;;;35.88;;
76813;SDS011;65767;49.360;8.266;2022-12-19T00:27:41;69.68;;;36.05;;
76813;SDS011;65767;49.360;8.266;2022-12-19T00:28:43;66.10;;;35.07;;
76813;SDS011;65767;49.360;8.266;2022-12-19T00:29:44;62.13;;;35.25;;
76813;SDS011;65767;49.360;8.266;2022-12-19T00:30:47;65.15;;;36.45;;
76813;SDS011;65767;49.360;8.266;2022-12-19T00:31:50;68.30;;;36.17;;
76813;SDS011;65767;49.360;8.266;2022-12-19T00:32:51;63.78;;;34.67;;
76813;SDS011;65767;49.360;8.266;2022-12-19T00:33:55;67.47;;;37.83;;
76813;SDS011;65767;49.360;8.266;2022-12-19T00:34:56;65.18;;;35.67;;
76813;SDS011;65767;49.360;8.266;2022-12-19T00:35:58;64.30;;;35.63;;
76813;SDS011;65767;49.360;8.266;2022-12-19T00:37:00;66.15;;;36.33;;
76813;SDS011;65767;49.360;8.266;2022-12-19T00:38:02;69.85;;;36.65;;
76813;SDS011;65767;49.360;8.266;2022-12-19T00:39:04;69.18;;;36.75;;
76813;SDS011;65767;49.360;8.266;2022-12-19T00:40:06;66.90;;;37.20;;
76813;SDS011;65767;49.360;8.266;2022-12-19T00:41:20;64.25;;;36.17;;
76813;SDS011;65767;49.360;8.266;2022-12-19T00:42:21;67.07;;;36.65;;
76813;SDS011;65767;49.360;8.266;2022-12-19T00:43:26;65.25;;;35.92;;
76813;SDS011;65767;49.360;8.266;2022-12-19T00:44:28;65.47;;;36.53;;
76813;SDS011;65767;49.360;8.266;2022-12-19T00:45:36;62.10;;;36.08;;
76813;SDS011;65767;49.360;8.266;2022-12-19T00:46:37;64.97;;;35.60;;
76813;SDS011;65767;49.360;8.266;2022-12-19T00:47:39;67.93;;;37.60;;
76813;SDS011;65767;49.360;8.266;2022-12-19T00:48:41;61.20;;;35.25;;
76813;SDS011;65767;49.360;8.266;2022-12-19T00:49:42;65.32;;;36.85;;
76813;SDS011;65767;49.360;8.266;2022-12-19T00:50:45;66.60;;;36.93;;
76813;SDS011;65767;49.360;8.266;2022-12-19T00:51:47;65.50;;;35.50;;
76813;SDS011;65767;49.360;8.266;2022-12-19T00:52:48;65.18;;;36.85;;
76813;SDS011;65767;49.360;8.266;2022-12-19T00:53:51;67.03;;;37.30;;
76813;SDS011;65767;49.360;8.266;2022-12-19T00:54:56;69.35;;;36.28;;
76813;SDS011;65767;49.360;8.266;2022-12-19T00:56:01;66.60;;;36.13;;
76813;SDS011;65767;49.360;8.266;2022-12-19T00:57:02;64.13;;;35.83;;
76813;SDS011;65767;49.360;8.266;2022-12-19T00:58:03;69.20;;;38.50;;
76813;SDS011;65767;49.360;8.266;2022-12-19T00:59:06;63.55;;;36.55;;
76813;SDS011;65767;49.360;8.266;2022-12-19T01:00:07;63.45;;;37.03;;
76813;SDS011;65767;49.360;8.266;2022-12-19T01:01:08;69.90;;;37.92;;
76813;SDS011;65767;49.360;8.266;2022-12-19T01:02:10;70.82;;;36.72;;
76813;SDS011;65767;49.360;8.266;2022-12-19T01:03:12;66.07;;;36.35;;
76813;SDS011;65767;49.360;8.266;2022-12-19T01:04:18;66.35;;;35.58;;
76813;SDS011;65767;49.360;8.266;2022-12-19T01:05:19;64.53;;;37.35;;
76813;SDS011;65767;49.360;8.266;2022-12-19T01:06:23;66.30;;;37.05;;
76813;SDS011;65767;49.360;8.266;2022-12-19T01:07:31;65.40;;;36.17;;
76813;SDS011;65767;49.360;8.266;2022-12-19T01:08:35;64.15;;;36.47;;
76813;SDS011;65767;49.360;8.266;2022-12-19T01:09:37;68.35;;;37.83;;
76813;SDS011;65767;49.360;8.266;2022-12-19T01:10:43;63.97;;;35.87;;
76813;SDS011;65767;49.360;8.266;2022-12-19T01:11:44;65.97;;;36.53;;
76813;SDS011;65767;49.360;8.266;2022-12-19T01:13:03;67.90;;;36.08;;
76813;SDS011;65767;49.360;8.266;2022-12-19T01:14:04;67.95;;;36.30;;
76813;SDS011;65767;49.360;8.266;2022-12-19T01:15:07;69.60;;;36.28;;
76813;SDS011;65767;49.360;8.266;2022-12-19T01:16:09;70.07;;;36.67;;
76813;SDS011;65767;49.360;8.266;2022-12-19T01:17:17;68.25;;;36.55;;
76813;SDS011;65767;49.360;8.266;2022-12-19T01:18:19;69.50;;;38.15;;
76813;SDS011;65767;49.360;8.266;2022-12-19T01:19:22;66.90;;;37.15;;
76813;SDS011;65767;49.360;8.266;2022-12-19T01:20:23;67.60;;;36.65;;
76813;SDS011;65767;49.360;8.266;2022-12-19T01:21:25;71.63;;;39.55;;
76813;SDS011;65767;49.360;8.266;2022-12-19T01:22:27;69.43;;;38.38;;
76813;SDS011;65767;49.360;8.266;2022-12-19T01:23:28;66.63;;;37.22;;
76813;SDS011;65767;49.360;8.266;2022-12-19T01:24:29;66.70;;;36.63;;
76813;SDS011;65767;49.360;8.266;2022-12-19T01:25:32;67.65;;;38.75;;
76813;SDS011;65767;49.360;8.266;2022-12-19T01:26:33;71.45;;;39.33;;
76813;SDS011;65767;49.360;8.266;2022-12-19T01:27:34;67.13;;;38.00;;
76813;SDS011;65767;49.360;8.266;2022-12-19T01:28:36;69.75;;;38.30;;
76813;SDS011;65767;49.360;8.266;2022-12-19T01:29:37;70.93;;;38.63;;
76813;SDS011;65767;49.360;8.266;2022-12-19T01:30:39;64.83;;;36.37;;
76813;SDS011;65767;49.360;8.266;2022-12-19T01:31:40;66.25;;;36.47;;
76813;SDS011;65767;49.360;8.266;2022-12-19T01:32:47;67.93;;;37.63;;
76813;SDS011;65767;49.360;8.266;2022-12-19T01:33:49;64.32;;;37.45;;
76813;SDS011;65767;49.360;8.266;2022-12-19T01:34:53;69.22;;;37.70;;
76813;SDS011;65767;49.360;8.266;2022-12-19T01:35:54;71.60;;;37.60;;
76813;SDS011;65767;49.360;8.266;2022-12-19T01:36:55;67.70;;;37.10;;
76813;SDS011;65767;49.360;8.266;2022-12-19T01:37:57;68.40;;;37.28;;
76813;SDS011;65767;49.360;8.266;2022-12-19T01:39:01;67.65;;;37.22;;
76813;SDS011;65767;49.360;8.266;2022-12-19T01:40:03;67.63;;;37.95;;
76813;SDS011;65767;49.360;8.266;2022-12-19T01:41:04;73.57;;;38.33;;
76813;SDS011;65767;49.360;8.266;2022-12-19T01:42:11;67.03;;;37.27;;
76813;SDS011;65767;49.360;8.266;2022-12-19T01:43:15;69.05;;;38.00;;
76813;SDS011;65767;49.360;8.266;2022-12-19T01:44:18;68.47;;;36.42;;
76813;SDS011;65767;49.360;8.266;2022-12-19T01:45:22;68.10;;;38.05;;
76813;SDS011;65767;49.360;8.266;2022-12-19T01:47:46;65.03;;;37.65;;
76813;SDS011;65767;49.360;8.266;2022-12-19T01:48:49;70.78;;;38.28;;
76813;SDS011;65767;49.360;8.266;2022-12-19T01:49:50;66.05;;;36.92;;
76813;SDS011;65767;49.360;8.266;2022-12-19T01:51:54;70.00;;;37.92;;
76813;SDS011;65767;49.360;8.266;2022-12-19T01:52:56;65.57;;;36.58;;
76813;SDS011;65767;49.360;8.266;2022-12-19T01:53:59;66.63;;;36.75;;
76813;SDS011;65767;49.360;8.266;2022-12-19T01:55:04;64.40;;;36.53;;
76813;SDS011;65767;49.360;8.266;2022-12-19T01:56:05;67.10;;;36.58;;
76813;SDS011;65767;49.360;8.266;2022-12-19T01:57:10;68.50;;;36.38;;
76813;SDS011;65767;49.360;8.266;2022-12-19T01:58:13;66.82;;;37.13;;
76813;SDS011;65767;49.360;8.266;2022-12-19T01:59:15;67.88;;;37.33;;
76813;SDS011;65767;49.360;8.266;2022-12-19T02:00:19;65.78;;;36.75;;
76813;SDS011;65767;49.360;8.266;2022-12-19T02:01:20;67.65;;;37.03;;
76813;SDS011;65767;49.360;8.266;2022-12-19T02:02:24;64.90;;;36.85;;
76813;SDS011;65767;49.360;8.266;2022-12-19T02:03:29;63.92;;;36.90;;
76813;SDS011;65767;49.360;8.266;2022-12-19T02:04:31;65.90;;;36.95;;
76813;SDS011;65767;49.360;8.266;2022-12-19T02:05:34;63.10;;;35.78;;
76813;SDS011;65767;49.360;8.266;2022-12-19T02:06:39;64.93;;;36.97;;
76813;SDS011;65767;49.360;8.266;2022-12-19T02:07:43;64.85;;;35.80;;
76813;SDS011;65767;49.360;8.266;2022-12-19T02:08:45;70.73;;;37.50;;
76813;SDS011;65767;49.360;8.266;2022-12-19T02:09:50;62.22;;;36.92;;
76813;SDS011;65767;49.360;8.266;2022-12-19T02:10:55;63.67;;;36.33;;
76813;SDS011;65767;49.360;8.266;2022-12-19T02:11:57;66.18;;;37.15;;
76813;SDS011;65767;49.360;8.266;2022-12-19T02:12:59;68.13;;;38.30;;
76813;SDS011;65767;49.360;8.266;2022-12-19T02:14:00;64.20;;;37.33;;
76813;SDS011;65767;49.360;8.266;2022-12-19T02:15:03;69.03;;;37.80;;
76813;SDS011;65767;49.360;8.266;2022-12-19T02:19:39;66.45;;;36.95;;
76813;SDS011;65767;49.360;8.266;2022-12-19T02:20:54;69.40;;;37.60;;
76813;SDS011;65767;49.360;8.266;2022-12-19T02:27:04;69.28;;;38.53;;
76813;SDS011;65767;49.360;8.266;2022-12-19T02:31:56;69.70;;;37.90;;
76813;SDS011;65767;49.360;8.266;2022-12-19T02:33:01;65.22;;;35.65;;
76813;SDS011;65767;49.360;8.266;2022-12-19T02:34:15;66.88;;;37.42;;
76813;SDS011;65767;49.360;8.266;2022-12-19T02:35:50;66.38;;;36.55;;
76813;SDS011;65767;49.360;8.266;2022-12-19T02:37:01;61.33;;;34.95;;
76813;SDS011;65767;49.360;8.266;2022-12-19T02:39:16;66.05;;;36.35;;
76813;SDS011;65767;49.360;8.266;2022-12-19T02:40:20;69.90;;;37.95;;
76813;SDS011;65767;49.360;8.266;2022-12-19T02:42:31;67.47;;;36.67;;
76813;SDS011;65767;49.360;8.266;2022-12-19T02:43:37;63.97;;;35.15;;
76813;SDS011;65767;49.360;8.266;2022-12-19T02:44:45;63.55;;;36.55;;
76813;SDS011;65767;49.360;8.266;2022-12-19T02:45:50;65.40;;;36.85;;
76813;SDS011;65767;49.360;8.266;2022-12-19T02:46:52;64.80;;;36.78;;
76813;SDS011;65767;49.360;8.266;2022-12-19T02:47:53;64.50;;;35.53;;
76813;SDS011;65767;49.360;8.266;2022-12-19T02:48:56;64.03;;;36.80;;
76813;SDS011;65767;49.360;8.266;2022-12-19T02:50:00;66.80;;;36.60;;
76813;SDS011;65767;49.360;8.266;2022-12-19T02:51:03;63.53;;;36.75;;
76813;SDS011;65767;49.360;8.266;2022-12-19T02:53:11;69.15;;;38.22;;
76813;SDS011;65767;49.360;8.266;2022-12-19T02:54:12;67.50;;;36.50;;
76813;SDS011;65767;49.360;8.266;2022-12-19T02:55:17;64.07;;;37.20;;
76813;SDS011;65767;49.360;8.266;2022-12-19T02:58:46;62.70;;;36.13;;
76813;SDS011;65767;49.360;8.266;2022-12-19T03:03:46;65.63;;;36.05;;
76813;SDS011;65767;49.360;8.266;2022-12-19T03:05:04;62.50;;;35.45;;
76813;SDS011;65767;49.360;8.266;2022-12-19T03:06:13;65.13;;;35.72;;
76813;SDS011;65767;49.360;8.266;2022-12-19T03:07:24;67.32;;;35.22;;
76813;SDS011;65767;49.360;8.266;2022-12-19T03:08:37;64.80;;;35.33;;
76813;SDS011;65767;49.360;8.266;2022-12-19T03:09:54;62.67;;;35.47;;
76813;SDS011;65767;49.360;8.266;2022-12-19T03:11:02;65.85;;;37.25;;
76813;SDS011;65767;49.360;8.266;2022-12-19T03:12:06;63.35;;;36.00;;
76813;SDS011;65767;49.360;8.266;2022-12-19T03:13:10;67.28;;;37.10;;
76813;SDS011;65767;49.360;8.266;2022-12-19T03:14:13;65.95;;;36.22;;
76813;SDS011;65767;49.360;8.266;2022-12-19T03:15:16;68.90;;;38.50;;
76813;SDS011;65767;49.360;8.266;2022-12-19T03:16:26;67.68;;;37.92;;
76813;SDS011;65767;49.360;8.266;2022-12-19T03:17:27;69.13;;;37.67;;
76813;SDS011;65767;49.360;8.266;2022-12-19T03:18:28;68.15;;;38.42;;
76813;SDS011;65767;49.360;8.266;2022-12-19T03:19:32;69.00;;;37.35;;
76813;SDS011;65767;49.360;8.266;2022-12-19T03:20:47;67.15;;;36.80;;
76813;SDS011;65767;49.360;8.266;2022-12-19T03:21:49;62.65;;;35.03;;
76813;SDS011;65767;49.360;8.266;2022-12-19T03:22:52;67.53;;;37.10;;
76813;SDS011;65767;49.360;8.266;2022-12-19T03:23:53;67.20;;;36.33;;
76813;SDS011;65767;49.360;8.266;2022-12-19T03:24:56;70.03;;;38.20;;
76813;SDS011;65767;49.360;8.266;2022-12-19T03:25:58;68.20;;;37.53;;
76813;SDS011;65767;49.360;8.266;2022-12-19T03:29:13;65.95;;;35.17;;
76813;SDS011;65767;49.360;8.266;2022-12-19T03:30:04;63.25;;;34.78;;
76813;SDS011;65767;49.360;8.266;2022-12-19T03:31:07;67.78;;;36.53;;
76813;SDS011;65767;49.360;8.266;2022-12-19T03:32:12;64.65;;;35.92;;
76813;SDS011;65767;49.360;8.266;2022-12-19T03:33:13;64.70;;;35.67;;
76813;SDS011;65767;49.360;8.266;2022-12-19T03:34:24;67.97;;;36.70;;
76813;SDS011;65767;49.360;8.266;2022-12-19T03:35:28;63.65;;;35.65;;
76813;SDS011;65767;49.360;8.266;2022-12-19T03:36:33;69.13;;;37.45;;
76813;SDS011;65767;49.360;8.266;2022-12-19T03:37:37;69.80;;;37.55;;
76813;SDS011;65767;49.360;8.266;2022-12-19T03:38:41;67.78;;;37.20;;
76813;SDS011;65767;49.360;8.266;2022-12-19T03:39:48;63.80;;;36.50;;
76813;SDS011;65767;49.360;8.266;2022-12-19T03:40:57;66.57;;;37.40;;
76813;SDS011;65767;49.360;8.266;2022-12-19T03:41:58;67.13;;;35.92;;
76813;SDS011;65767;49.360;8.266;2022-12-19T03:43:17;66.78;;;35.40;;
76813;SDS011;65767;49.360;8.266;2022-12-19T03:44:21;65.05;;;36.85;;
76813;SDS011;65767;49.360;8.266;2022-12-19T03:45:33;69.07;;;37.40;;
76813;SDS011;65767;49.360;8.266;2022-12-19T03:46:38;71.95;;;38.15;;
76813;SDS011;65767;49.360;8.266;2022-12-19T03:47:48;65.97;;;36.53;;
76813;SDS011;65767;49.360;8.266;2022-12-19T03:48:52;59.60;;;34.42;;
76813;SDS011;65767;49.360;8.266;2022-12-19T03:49:53;69.07;;;36.75;;
76813;SDS011;65767;49.360;8.266;2022-12-19T03:52:22;61.83;;;35.63;;
76813;SDS011;65767;49.360;8.266;2022-12-19T03:54:47;65.13;;;35.67;;
76813;SDS011;65767;49.360;8.266;2022-12-19T03:55:53;67.28;;;35.97;;
76813;SDS011;65767;49.360;8.266;2022-12-19T03:58:31;62.90;;;35.42;;
76813;SDS011;65767;49.360;8.266;2022-12-19T03:59:49;63.92;;;35.40;;
76813;SDS011;65767;49.360;8.266;2022-12-19T04:00:54;63.90;;;35.35;;
76813;SDS011;65767;49.360;8.266;2022-12-19T04:01:55;64.68;;;36.15;;
76813;SDS011;65767;49.360;8.266;2022-12-19T04:02:57;72.18;;;37.15;;
76813;SDS011;65767;49.360;8.266;2022-12-19T04:03:59;67.00;;;37.85;;
76813;SDS011;65767;49.360;8.266;2022-12-19T04:05:06;67.05;;;36.88;;
76813;SDS011;65767;49.360;8.266;2022-12-19T04:06:10;66.20;;;37.75;;
76813;SDS011;65767;49.360;8.266;2022-12-19T04:07:13;63.55;;;35.75;;
76813;SDS011;65767;49.360;8.266;2022-12-19T04:08:14;65.32;;;37.20;;
76813;SDS011;65767;49.360;8.266;2022-12-19T04:09:18;64.78;;;35.47;;
76813;SDS011;65767;49.360;8.266;2022-12-19T04:10:21;67.05;;;35.97;;
76813;SDS011;65767;49.360;8.266;2022-12-19T04:11:23;61.75;;;35.15;;
76813;SDS011;65767;49.360;8.266;2022-12-19T04:12:29;68.70;;;37.22;;
76813;SDS011;65767;49.360;8.266;2022-12-19T04:13:36;66.63;;;37.15;;
76813;SDS011;65767;49.360;8.266;2022-12-19T04:14:38;67.32;;;36.40;;
76813;SDS011;65767;49.360;8.266;2022-12-19T04:17:11;67.18;;;36.55;;
76813;SDS011;65767;49.360;8.266;2022-12-19T04:18:14;73.05;;;38.63;;
76813;SDS011;65767;49.360;8.266;2022-12-19T04:19:20;64.80;;;36.72;;
76813;SDS011;65767;49.360;8.266;2022-12-19T04:20:23;64.20;;;37.40;;
76813;SDS011;65767;49.360;8.266;2022-12-19T04:21:26;66.97;;;41.25;;
76813;SDS011;65767;49.360;8.266;2022-12-19T04:22:38;73.32;;;42.03;;
76813;SDS011;65767;49.360;8.266;2022-12-19T04:23:41;72.95;;;41.65;;
76813;SDS011;65767;49.360;8.266;2022-12-19T04:24:43;69.43;;;40.97;;
76813;SDS011;65767;49.360;8.266;2022-12-19T04:25:45;71.35;;;42.83;;
76813;SDS011;65767;49.360;8.266;2022-12-19T04:26:48;73.88;;;42.50;;
76813;SDS011;65767;49.360;8.266;2022-12-19T04:27:54;65.50;;;39.50;;
76813;SDS011;65767;49.360;8.266;2022-12-19T04:28:58;67.53;;;39.60;;
76813;SDS011;65767;49.360;8.266;2022-12-19T04:30:04;62.67;;;36.80;;
76813;SDS011;65767;49.360;8.266;2022-12-19T04:31:05;65.38;;;37.20;;
76813;SDS011;65767;49.360;8.266;2022-12-19T04:32:06;62.28;;;36.63;;
76813;SDS011;65767;49.360;8.266;2022-12-19T04:33:07;71.22;;;38.42;;
76813;SDS011;65767;49.360;8.266;2022-12-19T04:34:08;67.17;;;39.40;;
76813;SDS011;65767;49.360;8.266;2022-12-19T04:35:09;68.45;;;36.45;;
76813;SDS011;65767;49.360;8.266;2022-12-19T04:36:11;65.22;;;36.22;;
76813;SDS011;65767;49.360;8.266;2022-12-19T04:37:13;63.67;;;35.70;;
76813;SDS011;65767;49.360;8.266;2022-12-19T04:38:13;62.83;;;36.87;;
76813;SDS011;65767;49.360;8.266;2022-12-19T04:39:13;65.83;;;37.83;;
76813;SDS011;65767;49.360;8.266;2022-12-19T04:40:14;64.87;;;37.07;;
76813;SDS011;65767;49.360;8.266;2022-12-19T04:41:14;65.83;;;34.73;;
76813;SDS011;65767;49.360;8.266;2022-12-19T04:42:14;61.57;;;35.23;;
76813;SDS011;65767;49.360;8.266;2022-12-19T04:43:15;64.60;;;34.47;;
76813;SDS011;65767;49.360;8.266;2022-12-19T04:44:15;61.23;;;36.03;;
76813;SDS011;65767;49.360;8.266;2022-12-19T04:45:16;64.87;;;35.37;;
76813;SDS011;65767;49.360;8.266;2022-12-19T04:46:16;60.47;;;34.80;;
76813;SDS011;65767;49.360;8.266;2022-12-19T04:47:16;61.97;;;35.30;;
76813;SDS011;65767;49.360;8.266;2022-12-19T04:48:17;65.30;;;36.37;;
76813;SDS011;65767;49.360;8.266;2022-12-19T04:49:17;60.77;;;35.13;;
76813;SDS011;65767;49.360;8.266;2022-12-19T04:50:17;66.17;;;35.63;;
76813;SDS011;65767;49.360;8.266;2022-12-19T04:51:18;63.97;;;36.13;;
76813;SDS011;65767;49.360;8.266;2022-12-19T04:52:18;66.43;;;35.17;;
76813;SDS011;65767;49.360;8.266;2022-12-19T04:53:18;61.87;;;34.53;;
76813;SDS011;65767;49.360;8.266;2022-12-19T04:54:19;67.93;;;36.57;;
76813;SDS011;65767;49.360;8.266;2022-12-19T04:55:20;64.22;;;35.53;;
76813;SDS011;65767;49.360;8.266;2022-12-19T04:56:20;56.53;;;32.37;;
76813;SDS011;65767;49.360;8.266;2022-12-19T04:57:21;61.67;;;34.07;;
76813;SDS011;65767;49.360;8.266;2022-12-19T04:58:21;61.93;;;34.67;;
76813;SDS011;65767;49.360;8.266;2022-12-19T04:59:22;64.87;;;35.90;;
76813;SDS011;65767;49.360;8.266;2022-12-19T05:00:23;61.47;;;34.20;;
76813;SDS011;65767;49.360;8.266;2022-12-19T05:01:23;57.20;;;33.97;;
76813;SDS011;65767;49.360;8.266;2022-12-19T05:02:24;64.67;;;35.23;;
76813;SDS011;65767;49.360;8.266;2022-12-19T05:03:24;61.33;;;34.50;;
76813;SDS011;65767;49.360;8.266;2022-12-19T05:04:24;59.77;;;34.50;;
76813;SDS011;65767;49.360;8.266;2022-12-19T05:05:25;62.93;;;34.83;;
76813;SDS011;65767;49.360;8.266;2022-12-19T05:06:25;58.50;;;34.27;;
76813;SDS011;65767;49.360;8.266;2022-12-19T05:07:26;58.77;;;32.37;;
76813;SDS011;65767;49.360;8.266;2022-12-19T05:08:26;63.53;;;33.80;;
76813;SDS011;65767;49.360;8.266;2022-12-19T05:09:26;57.63;;;32.67;;
76813;SDS011;65767;49.360;8.266;2022-12-19T05:10:27;57.87;;;32.63;;
76813;SDS011;65767;49.360;8.266;2022-12-19T05:11:27;61.03;;;33.97;;
76813;SDS011;65767;49.360;8.266;2022-12-19T05:12:27;60.10;;;33.63;;
76813;SDS011;65767;49.360;8.266;2022-12-19T05:13:28;65.23;;;33.87;;
76813;SDS011;65767;49.360;8.266;2022-12-19T05:14:29;55.80;;;32.13;;
76813;SDS011;65767;49.360;8.266;2022-12-19T05:15:30;60.97;;;32.73;;
76813;SDS011;65767;49.360;8.266;2022-12-19T05:16:30;56.90;;;31.92;;
76813;SDS011;65767;49.360;8.266;2022-12-19T05:17:31;59.40;;;32.83;;
76813;SDS011;65767;49.360;8.266;2022-12-19T05:18:31;58.77;;;32.27;;
76813;SDS011;65767;49.360;8.266;2022-12-19T05:19:32;59.43;;;32.33;;
76813;SDS011;65767;49.360;8.266;2022-12-19T05:20:32;60.93;;;33.40;;
76813;SDS011;65767;49.360;8.266;2022-12-19T05:21:32;59.33;;;33.60;;
76813;SDS011;65767;49.360;8.266;2022-12-19T05:22:33;58.13;;;32.90;;
76813;SDS011;65767;49.360;8.266;2022-12-19T05:23:34;58.03;;;33.10;;
76813;SDS011;65767;49.360;8.266;2022-12-19T05:24:34;53.72;;;31.70;;
76813;SDS011;65767;49.360;8.266;2022-12-19T05:25:34;56.77;;;32.53;;
76813;SDS011;65767;49.360;8.266;2022-12-19T05:26:35;57.43;;;31.53;;
76813;SDS011;65767;49.360;8.266;2022-12-19T05:27:35;59.93;;;31.73;;
76813;SDS011;65767;49.360;8.266;2022-12-19T05:28:35;58.20;;;32.20;;
76813;SDS011;65767;49.360;8.266;2022-12-19T05:29:36;55.47;;;31.40;;
76813;SDS011;65767;49.360;8.266;2022-12-19T05:30:36;57.67;;;31.93;;
76813;SDS011;65767;49.360;8.266;2022-12-19T05:31:37;58.53;;;31.93;;
76813;SDS011;65767;49.360;8.266;2022-12-19T05:32:37;59.23;;;32.90;;
76813;SDS011;65767;49.360;8.266;2022-12-19T05:33:38;60.53;;;33.27;;
76813;SDS011;65767;49.360;8.266;2022-12-19T05:34:39;61.65;;;33.42;;
76813;SDS011;65767;49.360;8.266;2022-12-19T05:35:39;59.03;;;31.23;;
76813;SDS011;65767;49.360;8.266;2022-12-19T05:36:39;55.93;;;31.07;;
76813;SDS011;65767;49.360;8.266;2022-12-19T05:37:40;59.23;;;34.20;;
76813;SDS011;65767;49.360;8.266;2022-12-19T05:38:40;55.87;;;30.17;;
76813;SDS011;65767;49.360;8.266;2022-12-19T05:39:41;56.40;;;30.17;;
76813;SDS011;65767;49.360;8.266;2022-12-19T05:40:41;58.00;;;31.33;;
76813;SDS011;65767;49.360;8.266;2022-12-19T05:41:42;55.37;;;31.07;;
76813;SDS011;65767;49.360;8.266;2022-12-19T05:42:42;57.80;;;33.43;;
76813;SDS011;65767;49.360;8.266;2022-12-19T05:43:44;57.03;;;32.47;;
76813;SDS011;65767;49.360;8.266;2022-12-19T05:44:44;59.60;;;32.40;;
76813;SDS011;65767;49.360;8.266;2022-12-19T05:45:45;59.93;;;33.67;;
76813;SDS011;65767;49.360;8.266;2022-12-19T05:46:45;63.07;;;34.17;;
76813;SDS011;65767;49.360;8.266;2022-12-19T05:47:45;62.07;;;34.93;;
76813;SDS011;65767;49.360;8.266;2022-12-19T05:48:46;62.83;;;32.90;;
76813;SDS011;65767;49.360;8.266;2022-12-19T05:49:46;62.17;;;33.70;;
76813;SDS011;65767;49.360;8.266;2022-12-19T05:50:47;61.63;;;34.17;;
76813;SDS011;65767;49.360;8.266;2022-12-19T05:51:49;55.85;;;32.83;;
76813;SDS011;65767;49.360;8.266;2022-12-19T05:52:49;57.60;;;32.87;;
76813;SDS011;65767;49.360;8.266;2022-12-19T05:53:50;59.30;;;34.50;;
76813;SDS011;65767;49.360;8.266;2022-12-19T05:54:50;54.57;;;31.87;;
76813;SDS011;65767;49.360;8.266;2022-12-19T05:55:50;57.37;;;32.90;;
76813;SDS011;65767;49.360;8.266;2022-12-19T05:56:51;57.40;;;33.30;;
76813;SDS011;65767;49.360;8.266;2022-12-19T05:57:51;64.00;;;34.57;;
76813;SDS011;65767;49.360;8.266;2022-12-19T05:58:51;55.40;;;31.87;;
76813;SDS011;65767;49.360;8.266;2022-12-19T05:59:53;58.72;;;32.92;;
76813;SDS011;65767;49.360;8.266;2022-12-19T06:00:54;60.63;;;32.43;;
76813;SDS011;65767;49.360;8.266;2022-12-19T06:01:54;57.60;;;32.70;;
76813;SDS011;65767;49.360;8.266;2022-12-19T06:02:54;58.73;;;31.63;;
76813;SDS011;65767;49.360;8.266;2022-12-19T06:03:55;63.27;;;34.93;;
76813;SDS011;65767;49.360;8.266;2022-12-19T06:04:57;59.93;;;33.17;;
76813;SDS011;65767;49.360;8.266;2022-12-19T06:06:01;58.33;;;33.45;;
76813;SDS011;65767;49.360;8.266;2022-12-19T06:07:02;61.95;;;34.00;;
76813;SDS011;65767;49.360;8.266;2022-12-19T06:08:02;63.93;;;33.80;;
76813;SDS011;65767;49.360;8.266;2022-12-19T06:09:03;68.03;;;34.73;;
76813;SDS011;65767;49.360;8.266;2022-12-19T06:10:04;60.30;;;32.97;;
76813;SDS011;65767;49.360;8.266;2022-12-19T06:11:05;56.67;;;33.40;;
76813;SDS011;65767;49.360;8.266;2022-12-19T06:12:05;64.32;;;34.25;;
76813;SDS011;65767;49.360;8.266;2022-12-19T06:13:06;62.47;;;32.60;;
76813;SDS011;65767;49.360;8.266;2022-12-19T06:14:06;55.90;;;32.20;;
76813;SDS011;65767;49.360;8.266;2022-12-19T06:15:07;61.33;;;34.57;;
76813;SDS011;65767;49.360;8.266;2022-12-19T06:16:15;62.47;;;34.03;;
76813;SDS011;65767;49.360;8.266;2022-12-19T06:17:15;59.45;;;33.53;;
76813;SDS011;65767;49.360;8.266;2022-12-19T06:18:16;55.80;;;32.70;;
76813;SDS011;65767;49.360;8.266;2022-12-19T06:19:16;59.43;;;33.90;;
76813;SDS011;65767;49.360;8.266;2022-12-19T06:20:19;57.10;;;32.92;;
76813;SDS011;65767;49.360;8.266;2022-12-19T06:21:20;61.73;;;35.07;;
76813;SDS011;65767;49.360;8.266;2022-12-19T06:22:21;58.53;;;33.65;;
76813;SDS011;65767;49.360;8.266;2022-12-19T06:23:22;57.70;;;33.35;;
76813;SDS011;65767;49.360;8.266;2022-12-19T06:24:23;61.87;;;34.30;;
76813;SDS011;65767;49.360;8.266;2022-12-19T06:25:24;61.90;;;33.87;;
76813;SDS011;65767;49.360;8.266;2022-12-19T06:26:24;60.80;;;33.17;;
76813;SDS011;65767;49.360;8.266;2022-12-19T06:27:24;60.30;;;33.73;;
76813;SDS011;65767;49.360;8.266;2022-12-19T06:28:25;62.00;;;34.73;;
76813;SDS011;65767;49.360;8.266;2022-12-19T06:29:26;59.33;;;34.10;;
76813;SDS011;65767;49.360;8.266;2022-12-19T06:30:26;62.50;;;34.60;;
76813;SDS011;65767;49.360;8.266;2022-12-19T06:31:27;61.17;;;34.40;;
76813;SDS011;65767;49.360;8.266;2022-12-19T06:32:27;62.20;;;35.13;;
76813;SDS011;65767;49.360;8.266;2022-12-19T06:33:28;59.60;;;34.80;;
76813;SDS011;65767;49.360;8.266;2022-12-19T06:34:28;59.53;;;35.30;;
76813;SDS011;65767;49.360;8.266;2022-12-19T06:35:29;63.50;;;34.30;;
76813;SDS011;65767;49.360;8.266;2022-12-19T06:36:30;61.00;;;33.70;;
76813;SDS011;65767;49.360;8.266;2022-12-19T06:37:30;58.22;;;32.47;;
76813;SDS011;65767;49.360;8.266;2022-12-19T06:38:31;61.10;;;33.80;;
76813;SDS011;65767;49.360;8.266;2022-12-19T06:39:32;62.00;;;35.15;;